sensor_id;sensor_type;location;lat;lon;timestamp;pressure;altitude;pressure_sealevel;temperature;humidity
43741;BME280;29352;48.708;9.290;2023-05-24T08:55:20;98231.22;;;7.70;64.87
43741;BME280;29352;48.708;9.290;2023-05-24T08:57:47;98224.22;;;7.48;65.56
43741;BME280;29352;48.708;9.290;2023-05-24T09:00:13;98234.34;;;7.59;65.98
43741;BME280;29352;48.708;9.290;2023-05-24T09:02:40;98236.53;;;7.70;66.23
43741;BME280;29352;48.708;9.290;2023-05-24T09:05:10;98230.13;;;7.43;66.73
43741;BME280;29352;48.708;9.290;2023-05-24T09:07:40;98227.97;;;7.53;67.33
43741;BME280;29352;48.708;9.290;2023-05-24T09:10:09;98232.72;;;7.79;65.22
43741;BME280;29352;48.708;9.290;2023-05-24T09:12:37;98227.97;;;7.96;65.62
43741;BME280;29352;48.708;9.290;2023-05-24T09:15:06;98229.84;;;8.24;62.69
43741;BME280;29352;48.708;9.290;2023-05-24T09:17:36;98226.69;;;8.42;62.98
43741;BME280;29352;48.708;9.290;2023-05-24T09:20:04;98231.44;;;8.46;63.53
43741;BME280;29352;48.708;9.290;2023-05-24T09:22:35;98226.09;;;7.90;65.70
43741;BME280;29352;48.708;9.290;2023-05-24T09:25:05;98234.00;;;8.05;63.98
43741;BME280;29352;48.708;9.290;2023-05-24T09:27:32;98222.50;;;8.26;60.96
43741;BME280;29352;48.708;9.290;2023-05-24T09:30:00;98222.28;;;8.27;62.52
43741;BME280;29352;48.708;9.290;2023-05-24T09:32:29;98222.66;;;7.96;63.63
43741;BME280;29352;48.708;9.290;2023-05-24T09:34:57;98227.94;;;8.46;62.34
43741;BME280;29352;48.708;9.290;2023-05-24T09:37:25;98225.34;;;8.24;59.80
43741;BME280;29352;48.708;9.290;2023-05-24T09:39:53;98232.31;;;8.25;59.74
43741;BME280;29352;48.708;9.290;2023-05-24T09:42:21;98231.00;;;8.43;59.47
43741;BME280;29352;48.708;9.290;2023-05-24T09:45:01;98235.44;;;8.08;60.66
43741;BME280;29352;48.708;9.290;2023-05-24T09:47:40;98230.28;;;8.27;59.81
43741;BME280;29352;48.708;9.290;2023-05-24T09:50:16;98224.22;;;8.40;58.77
43741;BME280;29352;48.708;9.290;2023-05-24T09:52:42;98225.72;;;8.21;59.83
43741;BME280;29352;48.708;9.290;2023-05-24T09:55:14;98232.47;;;7.96;61.69
43741;BME280;29352;48.708;9.290;2023-05-24T09:57:42;98228.88;;;7.82;63.20
43741;BME280;29352;48.708;9.290;2023-05-24T10:00:10;98237.38;;;8.20;61.48
43741;BME280;29352;48.708;9.290;2023-05-24T10:02:44;98235.34;;;7.94;62.18
43741;BME280;29352;48.708;9.290;2023-05-24T10:05:11;98239.25;;;7.98;62.58
43741;BME280;29352;48.708;9.290;2023-05-24T10:07:39;98239.22;;;7.55;61.05
43741;BME280;29352;48.708;9.290;2023-05-24T10:10:07;98223.81;;;7.87;61.95
43741;BME280;29352;48.708;9.290;2023-05-24T10:12:35;98226.22;;;7.82;61.86
43741;BME280;29352;48.708;9.290;2023-05-24T10:15:02;98226.97;;;7.76;60.07
43741;BME280;29352;48.708;9.290;2023-05-24T10:17:28;98227.41;;;7.79;63.34
43741;BME280;29352;48.708;9.290;2023-05-24T10:19:53;98226.06;;;7.69;65.05
43741;BME280;29352;48.708;9.290;2023-05-24T10:22:20;98226.44;;;7.66;64.13
43741;BME280;29352;48.708;9.290;2023-05-24T10:24:49;98232.34;;;7.82;64.66
43741;BME280;29352;48.708;9.290;2023-05-24T10:27:22;98231.06;;;7.35;65.63
43741;BME280;29352;48.708;9.290;2023-05-24T10:30:13;98226.19;;;7.39;65.53
43741;BME280;29352;48.708;9.290;2023-05-24T10:32:46;98224.38;;;7.25;67.70
43741;BME280;29352;48.708;9.290;2023-05-24T10:35:14;98231.41;;;6.96;68.26
43741;BME280;29352;48.708;9.290;2023-05-24T10:37:41;98230.97;;;6.78;68.10
43741;BME280;29352;48.708;9.290;2023-05-24T10:40:16;98231.56;;;6.65;67.29
43741;BME280;29352;48.708;9.290;2023-05-24T10:42:45;98228.59;;;6.15;70.60
43741;BME280;29352;48.708;9.290;2023-05-24T10:47:52;98229.28;;;6.32;69.92
43741;BME280;29352;48.708;9.290;2023-05-24T10:50:19;98219.03;;;6.29;69.26
43741;BME280;29352;48.708;9.290;2023-05-24T10:52:48;98216.00;;;6.17;70.68
43741;BME280;29352;48.708;9.290;2023-05-24T10:55:14;98215.56;;;5.91;70.58
43741;BME280;29352;48.708;9.290;2023-05-24T10:57:40;98223.28;;;5.78;71.48
43741;BME280;29352;48.708;9.290;2023-05-24T11:02:50;98220.34;;;5.96;70.77
43741;BME280;29352;48.708;9.290;2023-05-24T11:08:10;98224.94;;;6.31;69.65
43741;BME280;29352;48.708;9.290;2023-05-24T11:10:36;98230.44;;;6.30;68.40
43741;BME280;29352;48.708;9.290;2023-05-24T11:13:03;98234.50;;;6.03;69.25
43741;BME280;29352;48.708;9.290;2023-05-24T11:15:31;98232.75;;;6.33;69.29
43741;BME280;29352;48.708;9.290;2023-05-24T11:20:38;98226.31;;;6.12;69.14
43741;BME280;29352;48.708;9.290;2023-05-24T11:23:08;98225.28;;;5.99;69.67
43741;BME280;29352;48.708;9.290;2023-05-24T11:25:34;98222.22;;;6.25;68.70
43741;BME280;29352;48.708;9.290;2023-05-24T11:28:07;98219.63;;;6.16;69.96
43741;BME280;29352;48.708;9.290;2023-05-24T11:30:43;98222.06;;;6.71;68.25
43741;BME280;29352;48.708;9.290;2023-05-24T11:33:17;98217.38;;;7.02;67.94
43741;BME280;29352;48.708;9.290;2023-05-24T11:35:49;98212.34;;;7.07;67.46
43741;BME280;29352;48.708;9.290;2023-05-24T11:38:16;98207.88;;;7.08;67.11
43741;BME280;29352;48.708;9.290;2023-05-24T11:40:44;98204.97;;;7.24;65.04
43741;BME280;29352;48.708;9.290;2023-05-24T11:43:16;98203.13;;;7.25;64.31
43741;BME280;29352;48.708;9.290;2023-05-24T11:45:50;98203.28;;;7.38;66.35
43741;BME280;29352;48.708;9.290;2023-05-24T11:48:18;98205.91;;;7.74;64.85
43741;BME280;29352;48.708;9.290;2023-05-24T11:50:46;98207.84;;;8.09;61.74
43741;BME280;29352;48.708;9.290;2023-05-24T11:53:14;98208.66;;;8.37;60.05
43741;BME280;29352;48.708;9.290;2023-05-24T11:55:42;98200.84;;;8.64;58.19
43741;BME280;29352;48.708;9.290;2023-05-24T11:58:28;98200.59;;;8.24;62.24
43741;BME280;29352;48.708;9.290;2023-05-24T12:01:02;98190.81;;;8.66;60.38
43741;BME280;29352;48.708;9.290;2023-05-24T12:03:28;98191.41;;;8.96;61.40
43741;BME280;29352;48.708;9.290;2023-05-24T12:05:56;98193.78;;;8.84;59.22
43741;BME280;29352;48.708;9.290;2023-05-24T12:08:22;98188.22;;;9.27;58.22
43741;BME280;29352;48.708;9.290;2023-05-24T12:10:48;98190.50;;;9.57;58.21
43741;BME280;29352;48.708;9.290;2023-05-24T12:13:22;98189.75;;;9.63;58.41
43741;BME280;29352;48.708;9.290;2023-05-24T12:15:53;98184.44;;;10.03;57.93
43741;BME280;29352;48.708;9.290;2023-05-24T12:18:21;98184.38;;;10.56;58.23
43741;BME280;29352;48.708;9.290;2023-05-24T12:20:49;98181.66;;;10.76;56.92
43741;BME280;29352;48.708;9.290;2023-05-24T12:23:20;98189.16;;;10.01;57.16
43741;BME280;29352;48.708;9.290;2023-05-24T12:25:47;98182.34;;;10.25;57.87
43741;BME280;29352;48.708;9.290;2023-05-24T12:28:15;98187.25;;;11.06;55.35
43741;BME280;29352;48.708;9.290;2023-05-24T12:30:43;98182.09;;;11.56;54.38
43741;BME280;29352;48.708;9.290;2023-05-24T12:33:09;98176.94;;;11.16;50.47
43741;BME280;29352;48.708;9.290;2023-05-24T12:35:36;98178.38;;;11.57;50.45
43741;BME280;29352;48.708;9.290;2023-05-24T12:38:02;98171.00;;;11.14;49.90
43741;BME280;29352;48.708;9.290;2023-05-24T12:40:32;98167.09;;;11.17;51.57
43741;BME280;29352;48.708;9.290;2023-05-24T12:42:58;98166.94;;;11.43;51.98
43741;BME280;29352;48.708;9.290;2023-05-24T12:45:25;98171.75;;;11.28;52.42
43741;BME280;29352;48.708;9.290;2023-05-24T12:47:53;98164.47;;;11.10;51.34
43741;BME280;29352;48.708;9.290;2023-05-24T12:50:21;98168.56;;;10.48;53.55
43741;BME280;29352;48.708;9.290;2023-05-24T12:52:48;98164.06;;;10.41;52.56
43741;BME280;29352;48.708;9.290;2023-05-24T12:55:18;98166.41;;;9.85;54.08
43741;BME280;29352;48.708;9.290;2023-05-24T12:57:47;98160.03;;;9.73;55.78
43741;BME280;29352;48.708;9.290;2023-05-24T13:00:25;98150.91;;;10.60;51.00
43741;BME280;29352;48.708;9.290;2023-05-24T13:02:53;98150.31;;;11.03;52.48
43741;BME280;29352;48.708;9.290;2023-05-24T13:05:26;98161.13;;;11.53;50.70
43741;BME280;29352;48.708;9.290;2023-05-24T13:07:54;98153.38;;;11.06;46.13
43741;BME280;29352;48.708;9.290;2023-05-24T13:10:23;98158.59;;;10.88;46.52
43741;BME280;29352;48.708;9.290;2023-05-24T13:12:49;98149.28;;;10.39;46.15
43741;BME280;29352;48.708;9.290;2023-05-24T13:15:15;98143.81;;;10.92;46.75
43741;BME280;29352;48.708;9.290;2023-05-24T13:17:43;98136.06;;;10.77;50.06
43741;BME280;29352;48.708;9.290;2023-05-24T13:20:09;98147.50;;;10.84;49.84
43741;BME280;29352;48.708;9.290;2023-05-24T13:22:37;98138.13;;;10.75;43.54
43741;BME280;29352;48.708;9.290;2023-05-24T13:25:04;98137.78;;;11.42;45.36
43741;BME280;29352;48.708;9.290;2023-05-24T13:27:31;98139.94;;;11.58;46.56
43741;BME280;29352;48.708;9.290;2023-05-24T13:29:57;98129.06;;;11.21;46.24
43741;BME280;29352;48.708;9.290;2023-05-24T13:32:23;98120.56;;;11.38;44.80
43741;BME280;29352;48.708;9.290;2023-05-24T13:34:49;98127.34;;;11.65;43.62
43741;BME280;29352;48.708;9.290;2023-05-24T13:37:14;98118.91;;;11.30;42.66
43741;BME280;29352;48.708;9.290;2023-05-24T13:39:41;98113.06;;;12.21;40.87
43741;BME280;29352;48.708;9.290;2023-05-24T13:42:07;98105.09;;;11.08;42.56
43741;BME280;29352;48.708;9.290;2023-05-24T13:44:33;98101.97;;;9.94;43.60
43741;BME280;29352;48.708;9.290;2023-05-24T13:47:00;98109.75;;;10.16;43.91
43741;BME280;29352;48.708;9.290;2023-05-24T13:49:26;98109.19;;;10.72;43.24
43741;BME280;29352;48.708;9.290;2023-05-24T13:51:53;98099.56;;;10.64;44.68
43741;BME280;29352;48.708;9.290;2023-05-24T13:54:19;98112.19;;;10.89;46.65
43741;BME280;29352;48.708;9.290;2023-05-24T13:56:46;98106.72;;;10.71;46.19
43741;BME280;29352;48.708;9.290;2023-05-24T13:59:14;98104.53;;;10.48;46.91
43741;BME280;29352;48.708;9.290;2023-05-24T14:01:40;98100.44;;;10.38;48.37
43741;BME280;29352;48.708;9.290;2023-05-24T14:04:07;98098.56;;;10.59;50.86
43741;BME280;29352;48.708;9.290;2023-05-24T14:06:33;98098.13;;;11.07;49.61
43741;BME280;29352;48.708;9.290;2023-05-24T14:09:01;98096.72;;;11.29;49.36
43741;BME280;29352;48.708;9.290;2023-05-24T14:11:28;98103.16;;;11.22;50.21
43741;BME280;29352;48.708;9.290;2023-05-24T14:13:55;98101.53;;;10.82;51.57
43741;BME280;29352;48.708;9.290;2023-05-24T14:16:21;98101.25;;;11.29;49.07
43741;BME280;29352;48.708;9.290;2023-05-24T14:18:47;98090.28;;;11.69;46.10
43741;BME280;29352;48.708;9.290;2023-05-24T14:21:17;98093.38;;;11.91;44.03
43741;BME280;29352;48.708;9.290;2023-05-24T14:23:43;98089.50;;;11.87;45.51
43741;BME280;29352;48.708;9.290;2023-05-24T14:26:09;98094.41;;;11.65;44.52
43741;BME280;29352;48.708;9.290;2023-05-24T14:28:34;98088.38;;;11.51;43.30
43741;BME280;29352;48.708;9.290;2023-05-24T14:31:00;98100.19;;;9.75;44.99
43741;BME280;29352;48.708;9.290;2023-05-24T14:33:26;98084.31;;;10.78;44.90
43741;BME280;29352;48.708;9.290;2023-05-24T14:35:51;98098.13;;;11.07;44.57
43741;BME280;29352;48.708;9.290;2023-05-24T14:38:17;98089.56;;;11.23;48.84
43741;BME280;29352;48.708;9.290;2023-05-24T14:40:43;98081.66;;;11.10;47.49
43741;BME280;29352;48.708;9.290;2023-05-24T14:43:11;98086.50;;;10.88;48.91
43741;BME280;29352;48.708;9.290;2023-05-24T14:45:37;98085.84;;;11.31;47.58
43741;BME280;29352;48.708;9.290;2023-05-24T14:48:05;98083.53;;;11.09;45.41
43741;BME280;29352;48.708;9.290;2023-05-24T14:50:34;98085.59;;;10.69;49.54
43741;BME280;29352;48.708;9.290;2023-05-24T14:53:00;98096.97;;;10.89;50.70
43741;BME280;29352;48.708;9.290;2023-05-24T14:55:32;98092.03;;;10.93;48.36
43741;BME280;29352;48.708;9.290;2023-05-24T14:57:57;98092.22;;;11.23;48.14
43741;BME280;29352;48.708;9.290;2023-05-24T15:00:23;98089.50;;;11.05;49.16
43741;BME280;29352;48.708;9.290;2023-05-24T15:02:48;98092.78;;;11.07;50.46
43741;BME280;29352;48.708;9.290;2023-05-24T15:05:14;98088.66;;;11.43;49.65
43741;BME280;29352;48.708;9.290;2023-05-24T15:07:39;98080.50;;;11.81;48.97
43741;BME280;29352;48.708;9.290;2023-05-24T15:10:05;98087.28;;;11.58;49.53
43741;BME280;29352;48.708;9.290;2023-05-24T15:12:31;98084.69;;;11.52;48.67
43741;BME280;29352;48.708;9.290;2023-05-24T15:14:56;98089.88;;;11.08;49.40
43741;BME280;29352;48.708;9.290;2023-05-24T15:17:22;98090.06;;;10.82;48.70
43741;BME280;29352;48.708;9.290;2023-05-24T15:19:47;98083.38;;;11.29;45.84
43741;BME280;29352;48.708;9.290;2023-05-24T15:22:13;98082.03;;;11.70;46.06
43741;BME280;29352;48.708;9.290;2023-05-24T15:24:38;98080.81;;;11.48;49.42
43741;BME280;29352;48.708;9.290;2023-05-24T15:27:04;98093.84;;;11.38;49.10
43741;BME280;29352;48.708;9.290;2023-05-24T15:29:29;98083.78;;;11.26;49.53
43741;BME280;29352;48.708;9.290;2023-05-24T15:31:55;98083.97;;;11.63;49.04
43741;BME280;29352;48.708;9.290;2023-05-24T15:34:23;98085.31;;;11.16;48.09
43741;BME280;29352;48.708;9.290;2023-05-24T15:36:48;98079.41;;;10.75;48.35
43741;BME280;29352;48.708;9.290;2023-05-24T15:39:14;98074.22;;;10.80;49.30
43741;BME280;29352;48.708;9.290;2023-05-24T15:41:40;98074.53;;;11.29;48.15
43741;BME280;29352;48.708;9.290;2023-05-24T15:44:06;98068.38;;;11.28;46.74
43741;BME280;29352;48.708;9.290;2023-05-24T15:46:33;98059.06;;;12.06;44.42
43741;BME280;29352;48.708;9.290;2023-05-24T15:49:00;98067.31;;;11.61;44.76
43741;BME280;29352;48.708;9.290;2023-05-24T15:51:27;98067.94;;;11.81;44.74
43741;BME280;29352;48.708;9.290;2023-05-24T15:53:52;98078.78;;;10.73;49.51
43741;BME280;29352;48.708;9.290;2023-05-24T15:56:18;98078.06;;;10.91;51.03
43741;BME280;29352;48.708;9.290;2023-05-24T15:58:43;98073.00;;;11.14;49.52
43741;BME280;29352;48.708;9.290;2023-05-24T16:01:10;98073.84;;;11.40;48.79
43741;BME280;29352;48.708;9.290;2023-05-24T16:03:36;98074.06;;;10.75;51.60
43741;BME280;29352;48.708;9.290;2023-05-24T16:06:02;98074.78;;;10.51;49.70
43741;BME280;29352;48.708;9.290;2023-05-24T16:08:29;98074.78;;;10.96;47.66
43741;BME280;29352;48.708;9.290;2023-05-24T16:10:55;98072.56;;;11.18;47.30
43741;BME280;29352;48.708;9.290;2023-05-24T16:13:20;98074.28;;;10.67;47.46
43741;BME280;29352;48.708;9.290;2023-05-24T16:15:46;98072.09;;;10.96;47.48
43741;BME280;29352;48.708;9.290;2023-05-24T16:18:16;98071.13;;;10.83;45.50
43741;BME280;29352;48.708;9.290;2023-05-24T16:20:47;98069.94;;;11.11;45.64
43741;BME280;29352;48.708;9.290;2023-05-24T16:23:14;98072.94;;;10.89;46.49
43741;BME280;29352;48.708;9.290;2023-05-24T16:25:40;98070.63;;;9.90;49.18
43741;BME280;29352;48.708;9.290;2023-05-24T16:28:07;98064.84;;;10.06;48.58
43741;BME280;29352;48.708;9.290;2023-05-24T16:30:33;98067.56;;;9.73;48.80
43741;BME280;29352;48.708;9.290;2023-05-24T16:33:01;98059.59;;;9.40;49.30
43741;BME280;29352;48.708;9.290;2023-05-24T16:35:26;98065.72;;;9.40;49.48
43741;BME280;29352;48.708;9.290;2023-05-24T16:37:52;98058.72;;;9.33;50.30
43741;BME280;29352;48.708;9.290;2023-05-24T16:40:17;98059.34;;;9.15;49.88
43741;BME280;29352;48.708;9.290;2023-05-24T16:42:43;98058.97;;;9.38;48.96
43741;BME280;29352;48.708;9.290;2023-05-24T16:45:08;98060.00;;;9.70;49.08
43741;BME280;29352;48.708;9.290;2023-05-24T16:47:34;98054.66;;;9.43;49.05
43741;BME280;29352;48.708;9.290;2023-05-24T16:49:59;98057.13;;;9.52;48.66
43741;BME280;29352;48.708;9.290;2023-05-24T16:52:25;98061.16;;;9.01;50.74
43741;BME280;29352;48.708;9.290;2023-05-24T16:54:50;98060.78;;;9.11;50.67
43741;BME280;29352;48.708;9.290;2023-05-24T16:57:16;98058.91;;;9.05;50.92
43741;BME280;29352;48.708;9.290;2023-05-24T16:59:41;98064.72;;;8.53;51.82
43741;BME280;29352;48.708;9.290;2023-05-24T17:02:09;98061.78;;;8.90;51.17
43741;BME280;29352;48.708;9.290;2023-05-24T17:04:35;98059.06;;;8.76;51.85
43741;BME280;29352;48.708;9.290;2023-05-24T17:07:00;98049.69;;;8.87;51.23
43741;BME280;29352;48.708;9.290;2023-05-24T17:09:26;98062.38;;;8.85;52.18
43741;BME280;29352;48.708;9.290;2023-05-24T17:11:51;98062.25;;;8.59;52.00
43741;BME280;29352;48.708;9.290;2023-05-24T17:14:16;98067.09;;;8.35;52.69
43741;BME280;29352;48.708;9.290;2023-05-24T17:16:42;98066.22;;;8.28;53.01
43741;BME280;29352;48.708;9.290;2023-05-24T17:19:07;98062.63;;;8.49;52.76
43741;BME280;29352;48.708;9.290;2023-05-24T17:21:33;98071.28;;;8.58;52.63
43741;BME280;29352;48.708;9.290;2023-05-24T17:23:58;98068.13;;;8.95;51.54
43741;BME280;29352;48.708;9.290;2023-05-24T17:26:24;98069.25;;;8.66;52.93
43741;BME280;29352;48.708;9.290;2023-05-24T17:28:51;98066.16;;;8.63;52.12
43741;BME280;29352;48.708;9.290;2023-05-24T17:31:16;98070.06;;;8.60;52.67
43741;BME280;29352;48.708;9.290;2023-05-24T17:33:42;98074.38;;;8.20;54.01
43741;BME280;29352;48.708;9.290;2023-05-24T17:36:08;98076.84;;;8.21;54.18
43741;BME280;29352;48.708;9.290;2023-05-24T17:38:34;98068.78;;;8.01;54.09
43741;BME280;29352;48.708;9.290;2023-05-24T17:41:04;98079.66;;;8.13;54.24
43741;BME280;29352;48.708;9.290;2023-05-24T17:43:32;98085.38;;;8.10;53.92
43741;BME280;29352;48.708;9.290;2023-05-24T17:45:59;98079.56;;;8.35;52.42
43741;BME280;29352;48.708;9.290;2023-05-24T17:48:34;98078.84;;;8.13;52.84
43741;BME280;29352;48.708;9.290;2023-05-24T17:51:03;98083.22;;;8.27;53.12
43741;BME280;29352;48.708;9.290;2023-05-24T17:53:31;98083.34;;;8.12;53.40
43741;BME280;29352;48.708;9.290;2023-05-24T17:55:59;98091.78;;;8.22;52.60
43741;BME280;29352;48.708;9.290;2023-05-24T17:58:25;98089.34;;;7.93;52.76
43741;BME280;29352;48.708;9.290;2023-05-24T18:00:51;98080.19;;;7.95;52.31
43741;BME280;29352;48.708;9.290;2023-05-24T18:03:16;98098.34;;;7.92;52.81
43741;BME280;29352;48.708;9.290;2023-05-24T18:05:42;98095.50;;;7.72;53.87
43741;BME280;29352;48.708;9.290;2023-05-24T18:08:07;98094.69;;;7.43;54.07
43741;BME280;29352;48.708;9.290;2023-05-24T18:10:33;98088.72;;;7.41;54.87
43741;BME280;29352;48.708;9.290;2023-05-24T18:12:59;98106.78;;;7.74;53.40
43741;BME280;29352;48.708;9.290;2023-05-24T18:15:25;98101.78;;;7.86;53.66
43741;BME280;29352;48.708;9.290;2023-05-24T18:17:50;98110.25;;;7.46;53.97
43741;BME280;29352;48.708;9.290;2023-05-24T18:20:16;98107.22;;;7.49;54.02
43741;BME280;29352;48.708;9.290;2023-05-24T18:22:41;98110.69;;;7.50;54.15
43741;BME280;29352;48.708;9.290;2023-05-24T18:25:07;98106.13;;;7.44;53.77
43741;BME280;29352;48.708;9.290;2023-05-24T18:27:33;98106.97;;;7.23;55.06
43741;BME280;29352;48.708;9.290;2023-05-24T18:29:58;98117.41;;;6.88;55.57
43741;BME280;29352;48.708;9.290;2023-05-24T18:32:24;98121.13;;;6.94;55.48
43741;BME280;29352;48.708;9.290;2023-05-24T18:34:51;98115.38;;;7.05;54.77
43741;BME280;29352;48.708;9.290;2023-05-24T18:37:16;98117.50;;;6.80;56.07
43741;BME280;29352;48.708;9.290;2023-05-24T18:39:43;98122.09;;;6.71;56.29
43741;BME280;29352;48.708;9.290;2023-05-24T18:42:09;98122.28;;;6.84;55.81
43741;BME280;29352;48.708;9.290;2023-05-24T18:44:36;98120.56;;;6.77;55.99
43741;BME280;29352;48.708;9.290;2023-05-24T18:47:03;98126.56;;;6.71;56.16
43741;BME280;29352;48.708;9.290;2023-05-24T18:49:28;98126.31;;;6.51;56.09
43741;BME280;29352;48.708;9.290;2023-05-24T18:51:56;98133.41;;;6.29;56.61
43741;BME280;29352;48.708;9.290;2023-05-24T18:54:22;98129.19;;;6.20;56.50
43741;BME280;29352;48.708;9.290;2023-05-24T18:56:47;98134.22;;;6.14;56.39
43741;BME280;29352;48.708;9.290;2023-05-24T18:59:12;98139.69;;;6.13;56.41
43741;BME280;29352;48.708;9.290;2023-05-24T19:01:40;98144.06;;;5.91;56.76
43741;BME280;29352;48.708;9.290;2023-05-24T19:04:06;98150.44;;;5.97;56.66
43741;BME280;29352;48.708;9.290;2023-05-24T19:06:31;98146.13;;;5.81;57.39
43741;BME280;29352;48.708;9.290;2023-05-24T19:08:56;98152.81;;;5.91;56.69
43741;BME280;29352;48.708;9.290;2023-05-24T19:11:24;98147.84;;;5.74;57.16
43741;BME280;29352;48.708;9.290;2023-05-24T19:13:50;98150.16;;;5.77;56.98
43741;BME280;29352;48.708;9.290;2023-05-24T19:16:15;98150.13;;;5.54;58.69
43741;BME280;29352;48.708;9.290;2023-05-24T19:18:43;98158.50;;;5.19;60.11
43741;BME280;29352;48.708;9.290;2023-05-24T19:21:09;98163.06;;;5.03;59.84
43741;BME280;29352;48.708;9.290;2023-05-24T19:23:35;98159.25;;;4.74;61.77
43741;BME280;29352;48.708;9.290;2023-05-24T19:26:01;98164.94;;;4.94;61.74
43741;BME280;29352;48.708;9.290;2023-05-24T19:28:27;98172.66;;;4.72;62.40
43741;BME280;29352;48.708;9.290;2023-05-24T19:30:53;98165.81;;;4.78;58.91
43741;BME280;29352;48.708;9.290;2023-05-24T19:33:18;98163.28;;;4.93;55.95
43741;BME280;29352;48.708;9.290;2023-05-24T19:35:44;98173.41;;;5.12;55.58
43741;BME280;29352;48.708;9.290;2023-05-24T19:38:10;98162.31;;;4.86;55.44
43741;BME280;29352;48.708;9.290;2023-05-24T19:40:36;98174.63;;;4.70;57.35
43741;BME280;29352;48.708;9.290;2023-05-24T19:43:01;98172.03;;;4.62;57.55
43741;BME280;29352;48.708;9.290;2023-05-24T19:45:27;98170.63;;;4.74;57.75
43741;BME280;29352;48.708;9.290;2023-05-24T19:47:52;98175.25;;;4.81;57.84
43741;BME280;29352;48.708;9.290;2023-05-24T19:50:17;98178.97;;;4.63;58.25
43741;BME280;29352;48.708;9.290;2023-05-24T19:52:43;98195.22;;;4.19;59.32
43741;BME280;29352;48.708;9.290;2023-05-24T19:55:09;98193.78;;;4.17;60.43
43741;BME280;29352;48.708;9.290;2023-05-24T19:57:34;98182.28;;;4.41;56.30
43741;BME280;29352;48.708;9.290;2023-05-24T20:00:00;98188.25;;;4.43;56.52
43741;BME280;29352;48.708;9.290;2023-05-24T20:02:26;98195.78;;;4.70;55.27
43741;BME280;29352;48.708;9.290;2023-05-24T20:04:52;98196.84;;;4.53;56.39
43741;BME280;29352;48.708;9.290;2023-05-24T20:07:17;98194.53;;;4.42;58.76
43741;BME280;29352;48.708;9.290;2023-05-24T20:09:43;98199.63;;;4.43;57.03
43741;BME280;29352;48.708;9.290;2023-05-24T20:12:08;98196.53;;;4.23;56.72
43741;BME280;29352;48.708;9.290;2023-05-24T20:14:34;98196.69;;;4.30;56.01
43741;BME280;29352;48.708;9.290;2023-05-24T20:16:59;98197.88;;;4.27;55.94
43741;BME280;29352;48.708;9.290;2023-05-24T20:19:25;98190.22;;;4.49;54.52
43741;BME280;29352;48.708;9.290;2023-05-24T20:21:52;98196.63;;;4.63;54.15
43741;BME280;29352;48.708;9.290;2023-05-24T20:24:17;98197.34;;;4.32;55.45
43741;BME280;29352;48.708;9.290;2023-05-24T20:26:42;98193.72;;;4.41;55.83
43741;BME280;29352;48.708;9.290;2023-05-24T20:29:09;98196.53;;;4.23;56.78
43741;BME280;29352;48.708;9.290;2023-05-24T20:31:34;98200.91;;;3.75;62.82
43741;BME280;29352;48.708;9.290;2023-05-24T20:34:02;98198.56;;;3.64;64.07
43741;BME280;29352;48.708;9.290;2023-05-24T20:36:27;98203.34;;;3.28;66.32
43741;BME280;29352;48.708;9.290;2023-05-24T20:38:53;98201.81;;;3.17;64.95
43741;BME280;29352;48.708;9.290;2023-05-24T20:41:18;98204.34;;;3.27;65.42
43741;BME280;29352;48.708;9.290;2023-05-24T20:43:44;98207.41;;;3.14;65.89
43741;BME280;29352;48.708;9.290;2023-05-24T20:46:09;98215.53;;;3.29;64.74
43741;BME280;29352;48.708;9.290;2023-05-24T20:48:35;98201.00;;;3.25;63.66
43741;BME280;29352;48.708;9.290;2023-05-24T20:51:04;98195.88;;;3.23;65.97
43741;BME280;29352;48.708;9.290;2023-05-24T20:53:31;98205.81;;;3.46;66.27
43741;BME280;29352;48.708;9.290;2023-05-24T20:55:56;98199.41;;;3.81;60.05
43741;BME280;29352;48.708;9.290;2023-05-24T20:58:22;98197.88;;;4.19;61.02
43741;BME280;29352;48.708;9.290;2023-05-24T21:00:47;98200.41;;;3.80;63.58
43741;BME280;29352;48.708;9.290;2023-05-24T21:03:13;98203.00;;;4.21;62.31
43741;BME280;29352;48.708;9.290;2023-05-24T21:05:38;98199.38;;;4.06;62.01
43741;BME280;29352;48.708;9.290;2023-05-24T21:08:04;98198.38;;;4.15;61.72
43741;BME280;29352;48.708;9.290;2023-05-24T21:10:30;98190.84;;;3.79;60.94
43741;BME280;29352;48.708;9.290;2023-05-24T21:12:56;98189.31;;;4.09;60.40
43741;BME280;29352;48.708;9.290;2023-05-24T21:15:22;98196.59;;;3.99;61.83
43741;BME280;29352;48.708;9.290;2023-05-24T21:17:47;98197.22;;;4.25;59.80
43741;BME280;29352;48.708;9.290;2023-05-24T21:20:12;98209.13;;;3.89;64.04
43741;BME280;29352;48.708;9.290;2023-05-24T21:22:38;98201.56;;;3.86;63.98
43741;BME280;29352;48.708;9.290;2023-05-24T21:25:04;98208.47;;;3.70;63.30
43741;BME280;29352;48.708;9.290;2023-05-24T21:27:30;98207.00;;;3.76;64.27
43741;BME280;29352;48.708;9.290;2023-05-24T21:29:55;98212.25;;;4.25;61.80
43741;BME280;29352;48.708;9.290;2023-05-24T21:32:21;98208.78;;;4.16;61.87
43741;BME280;29352;48.708;9.290;2023-05-24T21:34:46;98201.03;;;3.98;61.59
43741;BME280;29352;48.708;9.290;2023-05-24T21:37:11;98203.66;;;4.15;61.60
43741;BME280;29352;48.708;9.290;2023-05-24T21:39:37;98195.91;;;4.21;60.80
43741;BME280;29352;48.708;9.290;2023-05-24T21:42:03;98200.22;;;4.14;59.73
43741;BME280;29352;48.708;9.290;2023-05-24T21:44:28;98211.41;;;4.16;59.44
43741;BME280;29352;48.708;9.290;2023-05-24T21:46:54;98214.69;;;4.26;62.04
43741;BME280;29352;48.708;9.290;2023-05-24T21:49:19;98215.22;;;4.06;63.07
43741;BME280;29352;48.708;9.290;2023-05-24T21:51:46;98221.34;;;4.06;61.65
43741;BME280;29352;48.708;9.290;2023-05-24T21:54:12;98217.16;;;4.44;61.88
43741;BME280;29352;48.708;9.290;2023-05-24T21:56:37;98218.81;;;4.37;61.75
43741;BME280;29352;48.708;9.290;2023-05-24T21:59:03;98228.06;;;4.41;62.41
43741;BME280;29352;48.708;9.290;2023-05-24T22:01:28;98225.41;;;4.33;62.86
43741;BME280;29352;48.708;9.290;2023-05-24T22:03:54;98228.88;;;4.34;63.85
43741;BME280;29352;48.708;9.290;2023-05-24T22:06:19;98218.84;;;4.21;63.82
43741;BME280;29352;48.708;9.290;2023-05-24T22:08:46;98225.41;;;4.33;62.54
43741;BME280;29352;48.708;9.290;2023-05-24T22:11:11;98220.03;;;4.10;62.53